createdAt,value
2019-04-25T00:02:02.037Z,85.13
2019-04-25T00:04:31.570Z,84.74
2019-04-25T00:07:02.221Z,84.58
2019-04-25T00:09:33.304Z,84.53
2019-04-25T00:12:02.512Z,84.26
2019-04-25T00:14:32.057Z,84.74
2019-04-25T00:17:01.798Z,84.38
2019-04-25T00:19:31.699Z,84.97
2019-04-25T00:22:02.596Z,84.40
2019-04-25T00:24:43.269Z,83.93
2019-04-25T00:27:13.267Z,84.50
2019-04-25T00:29:43.938Z,84.19
2019-04-25T00:32:13.515Z,84.22
2019-04-25T00:34:44.231Z,83.62
2019-04-25T00:37:14.076Z,83.55
2019-04-25T00:39:45.042Z,83.34
2019-04-25T00:42:14.227Z,82.68
2019-04-25T00:44:44.841Z,82.87
2019-04-25T00:47:14.476Z,82.61
2019-04-25T00:49:44.878Z,83.51
2019-04-25T00:52:14.485Z,83.40
2019-04-25T00:54:44.193Z,83.44
2019-04-25T00:57:14.030Z,83.60
2019-04-25T00:59:55.079Z,83.79
2019-04-25T01:02:28.983Z,84.18
2019-04-25T01:04:58.249Z,83.87
2019-04-25T01:07:27.561Z,84.38
2019-04-25T01:09:56.885Z,84.54
2019-04-25T01:12:26.201Z,84.71
2019-04-25T01:14:55.491Z,84.51
2019-04-25T01:17:24.783Z,84.69
2019-04-25T01:19:56.938Z,84.64
2019-04-25T01:22:25.020Z,84.65
2019-04-25T01:24:55.170Z,84.75
2019-04-25T01:27:25.173Z,84.42
2019-04-25T01:29:55.300Z,84.52
2019-04-25T01:32:26.463Z,84.10
2019-04-25T01:35:00.301Z,83.90
2019-04-25T01:37:30.802Z,83.69
2019-04-25T01:40:10.636Z,84.66
2019-04-25T01:42:54.508Z,84.72
2019-04-25T01:45:25.704Z,84.71
2019-04-25T01:47:56.287Z,84.73
2019-04-25T01:50:25.654Z,84.77
2019-04-25T01:52:55.660Z,84.96
2019-04-25T01:55:25.132Z,84.36
2019-04-25T01:57:55.157Z,84.36
2019-04-25T02:00:35.671Z,84.68
2019-04-25T02:03:05.463Z,84.74
2019-04-25T02:05:34.685Z,84.59
2019-04-25T02:08:06.948Z,84.70
2019-04-25T02:10:34.908Z,85.04
2019-04-25T02:13:08.597Z,84.90
2019-04-25T02:15:37.895Z,85.06
2019-04-25T02:18:07.199Z,84.67
2019-04-25T02:20:36.585Z,84.81
2019-04-25T02:23:05.890Z,84.71
2019-04-25T02:25:35.095Z,84.56
2019-04-25T02:28:06.257Z,84.56
2019-04-25T02:30:35.852Z,84.30
2019-04-25T02:33:08.825Z,84.37
2019-04-25T02:35:36.088Z,84.34
2019-04-25T02:38:08.920Z,84.57
2019-04-25T02:40:36.295Z,84.15
2019-04-25T02:43:08.035Z,83.85
2019-04-25T02:45:38.205Z,84.69
2019-04-25T02:48:25.020Z,84.04
2019-04-25T02:51:10.603Z,83.68
2019-04-25T02:53:44.475Z,83.92
2019-04-25T02:56:29.403Z,83.36
2019-04-25T02:58:44.268Z,83.15
2019-04-25T03:01:22.277Z,83.15
2019-04-25T03:03:47.368Z,82.87
2019-04-25T03:06:16.759Z,83.03
2019-04-25T03:08:46.051Z,82.78
2019-04-25T03:11:15.469Z,82.41
2019-04-25T03:13:44.858Z,82.81
2019-04-25T03:16:14.269Z,82.65
2019-04-25T03:18:54.567Z,83.00
2019-04-25T03:21:28.223Z,82.95
2019-04-25T03:23:58.447Z,82.94
2019-04-25T03:26:37.973Z,82.89
2019-04-25T03:28:59.812Z,82.89
2019-04-25T03:31:29.015Z,82.48
2019-04-25T03:33:58.624Z,82.15
2019-04-25T03:36:27.920Z,81.83
2019-04-25T03:38:57.165Z,82.16
2019-04-25T03:41:26.424Z,81.88
2019-04-25T03:43:55.641Z,81.85
2019-04-25T03:46:24.924Z,81.37
2019-04-25T03:48:54.114Z,81.37
2019-04-25T03:51:24.013Z,81.34
2019-04-25T03:53:53.635Z,81.04
2019-04-25T03:56:22.850Z,81.07
2019-04-25T03:58:52.076Z,80.91
2019-04-25T04:01:21.247Z,81.22
2019-04-25T04:03:50.456Z,81.22
2019-04-25T04:06:19.649Z,81.14
2019-04-25T04:08:48.931Z,81.14
2019-04-25T04:11:18.136Z,81.09
2019-04-25T04:13:47.330Z,80.56
2019-04-25T04:16:18.198Z,80.86
2019-04-25T04:18:49.341Z,80.86
2019-04-25T04:21:33.283Z,80.83
2019-04-25T04:24:14.116Z,80.83
2019-04-25T04:26:45.800Z,80.56
2019-04-25T04:29:15.274Z,80.17
2019-04-25T04:31:44.518Z,80.17
2019-04-25T04:34:33.638Z,79.39
2019-04-25T04:37:03.731Z,79.68
2019-04-25T04:39:33.830Z,79.44
2019-04-25T04:42:03.829Z,79.38
2019-04-25T04:44:34.310Z,79.21
2019-04-25T04:47:04.114Z,78.90
2019-04-25T04:49:34.121Z,78.95
2019-04-25T04:52:06.142Z,78.97
2019-04-25T04:54:34.596Z,79.15
2019-04-25T04:57:16.627Z,78.97
2019-04-25T04:59:34.754Z,78.97
2019-04-25T05:02:12.273Z,78.86
2019-04-25T05:04:55.572Z,78.73
2019-04-25T05:07:38.498Z,78.73
2019-04-25T05:10:08.099Z,78.47
2019-04-25T05:12:37.307Z,78.33
2019-04-25T05:15:08.244Z,78.43
2019-04-25T05:17:40.552Z,78.43
2019-04-25T05:20:10.128Z,78.18
2019-04-25T05:22:39.303Z,77.72
2019-04-25T05:25:09.052Z,77.67
2019-04-25T05:27:56.901Z,77.21
2019-04-25T05:30:14.367Z,76.13
2019-04-25T05:32:44.206Z,76.15
2019-04-25T05:35:14.955Z,76.15
2019-04-25T05:37:44.488Z,75.69
2019-04-25T05:40:15.796Z,75.71
2019-04-25T05:42:46.520Z,75.71
2019-04-25T05:45:18.572Z,75.48
2019-04-25T05:47:47.938Z,75.71
2019-04-25T05:50:17.874Z,75.42
2019-04-25T05:52:47.108Z,75.39
2019-04-25T05:55:18.947Z,74.86
2019-04-25T05:57:50.007Z,74.94
2019-04-25T06:00:19.049Z,75.17
2019-04-25T06:02:48.268Z,74.96
2019-04-25T06:05:17.517Z,75.22
2019-04-25T06:07:46.698Z,75.10
2019-04-25T06:10:18.115Z,75.06
2019-04-25T06:12:48.977Z,75.30
2019-04-25T06:15:20.009Z,75.12
2019-04-25T06:17:50.867Z,74.76
2019-04-25T06:20:24.655Z,74.71
2019-04-25T06:22:56.299Z,74.61
2019-04-25T06:25:30.527Z,73.77
2019-04-25T06:28:05.390Z,73.77
2019-04-25T06:30:35.453Z,73.54
2019-04-25T06:33:04.800Z,73.64
2019-04-25T06:35:35.867Z,73.10
2019-04-25T06:38:05.199Z,73.51
2019-04-25T06:40:34.614Z,72.80
2019-04-25T06:43:04.147Z,73.27
2019-04-25T06:45:37.752Z,73.07
2019-04-25T06:48:11.232Z,73.11
2019-04-25T06:50:40.353Z,73.40
2019-04-25T06:53:09.566Z,74.23
2019-04-25T06:55:38.838Z,74.82
2019-04-25T06:58:11.721Z,75.65
2019-04-25T07:00:42.651Z,75.70
2019-04-25T07:03:10.166Z,75.81
2019-04-25T07:05:40.684Z,75.78
2019-04-25T07:08:10.061Z,75.46
2019-04-25T07:10:39.212Z,76.17
2019-04-25T07:13:08.403Z,75.48
2019-04-25T07:15:37.623Z,75.76
2019-04-25T07:18:06.934Z,75.83
2019-04-25T07:20:36.138Z,75.21
2019-04-25T07:23:05.487Z,74.68
2019-04-25T07:25:36.709Z,74.83
2019-04-25T07:28:28.526Z,74.79
2019-04-25T07:31:09.211Z,74.88
2019-04-25T07:33:40.167Z,75.24
2019-04-25T07:36:09.483Z,75.20
2019-04-25T07:38:38.676Z,75.37
2019-04-25T07:41:08.038Z,74.98
2019-04-25T07:43:37.275Z,74.86
2019-04-25T07:46:06.489Z,73.80
2019-04-25T07:48:37.096Z,73.43
2019-04-25T07:51:06.679Z,73.18
2019-04-25T07:53:36.166Z,73.34
2019-04-25T07:56:05.518Z,73.24
2019-04-25T07:58:49.594Z,73.22
2019-04-25T08:01:14.154Z,72.99
2019-04-25T08:03:43.952Z,72.14
2019-04-25T08:06:13.700Z,72.23
2019-04-25T08:08:43.622Z,73.02
2019-04-25T08:11:14.043Z,71.75
2019-04-25T08:13:45.114Z,72.17
2019-04-25T08:16:19.653Z,71.56
2019-04-25T08:18:49.812Z,71.17
2019-04-25T08:21:19.075Z,70.84
2019-04-25T08:23:49.583Z,70.95
2019-04-25T08:26:18.901Z,70.34
2019-04-25T08:28:54.390Z,69.46
2019-04-25T08:31:19.042Z,68.81
2019-04-25T08:33:48.330Z,68.93
2019-04-25T08:36:17.539Z,68.36
2019-04-25T08:38:46.770Z,68.01
2019-04-25T08:41:16.020Z,68.01
2019-04-25T08:43:45.561Z,66.80
2019-04-25T08:46:14.744Z,67.14
2019-04-25T08:49:02.416Z,67.49
2019-04-25T08:51:40.124Z,67.18
2019-04-25T08:54:11.150Z,67.33
2019-04-25T08:56:40.383Z,66.62
2019-04-25T08:59:17.314Z,66.89
2019-04-25T09:01:50.595Z,65.29
2019-04-25T09:04:27.196Z,65.66
2019-04-25T09:06:56.470Z,65.04
2019-04-25T09:09:26.088Z,65.08
2019-04-25T09:11:55.471Z,65.07
2019-04-25T09:14:24.675Z,64.17
2019-04-25T09:16:53.958Z,64.59
2019-04-25T09:19:24.145Z,64.05
2019-04-25T09:21:54.297Z,63.84
2019-04-25T09:24:24.597Z,64.01
2019-04-25T09:26:54.160Z,63.47
2019-04-25T09:29:23.583Z,63.65
2019-04-25T09:31:53.736Z,63.22
2019-04-25T09:34:23.792Z,63.52
2019-04-25T09:36:53.600Z,63.51
2019-04-25T09:39:24.541Z,63.52
2019-04-25T09:41:53.784Z,63.34
2019-04-25T09:44:24.644Z,62.52
2019-04-25T09:46:54.436Z,62.60
2019-04-25T09:49:27.893Z,63.13
2019-04-25T09:52:13.608Z,62.32
2019-04-25T09:54:45.196Z,62.51
2019-04-25T09:57:28.024Z,62.19
2019-04-25T09:59:57.256Z,61.37
2019-04-25T10:02:26.696Z,62.54
2019-04-25T10:04:55.989Z,62.30
2019-04-25T10:07:25.273Z,62.20
2019-04-25T10:09:54.781Z,62.24
2019-04-25T10:12:23.965Z,61.18
2019-04-25T10:14:56.305Z,61.35
2019-04-25T10:17:25.561Z,60.25
2019-04-25T10:19:55.040Z,60.42
2019-04-25T10:22:24.328Z,60.78
2019-04-25T10:25:00.424Z,58.86
2019-04-25T10:27:24.607Z,59.20
2019-04-25T10:29:57.069Z,60.16
2019-04-25T10:32:24.954Z,59.83
2019-04-25T10:34:54.356Z,59.61
2019-04-25T10:37:23.620Z,60.29
2019-04-25T10:39:55.251Z,59.93
2019-04-25T10:42:23.997Z,59.78
2019-04-25T10:44:54.485Z,59.40
2019-04-25T10:47:24.240Z,59.67
2019-04-25T10:49:55.467Z,59.38
2019-04-25T10:52:24.651Z,58.12
2019-04-25T10:54:54.273Z,59.09
2019-04-25T10:57:24.903Z,59.18
2019-04-25T11:00:05.892Z,58.45
2019-04-25T11:02:25.884Z,59.88
2019-04-25T11:04:56.745Z,58.63
2019-04-25T11:07:26.020Z,58.84
2019-04-25T11:09:55.310Z,58.43
2019-04-25T11:12:24.926Z,58.22
2019-04-25T11:14:55.941Z,58.40
2019-04-25T11:17:25.137Z,58.67
2019-04-25T11:19:55.469Z,58.61
2019-04-25T11:22:24.685Z,58.89
2019-04-25T11:24:53.885Z,58.90
2019-04-25T11:27:23.967Z,59.11
2019-04-25T11:30:08.013Z,58.17
2019-04-25T11:32:26.980Z,58.28
2019-04-25T11:34:57.273Z,58.11
2019-04-25T11:37:28.134Z,58.05
2019-04-25T11:39:58.980Z,57.99
2019-04-25T11:42:28.704Z,57.97
2019-04-25T11:44:58.000Z,58.15
2019-04-25T11:47:27.287Z,57.66
2019-04-25T11:49:56.490Z,58.13
2019-04-25T11:52:28.178Z,58.27
2019-04-25T11:54:56.844Z,57.91
2019-04-25T11:57:26.032Z,57.98
2019-04-25T11:59:55.826Z,57.92
2019-04-25T12:02:26.070Z,58.13
2019-04-25T12:04:55.373Z,58.07
2019-04-25T12:07:24.679Z,58.62
2019-04-25T12:09:54.562Z,57.57
2019-04-25T12:12:24.801Z,57.23
2019-04-25T12:14:55.391Z,57.71
2019-04-25T12:17:24.656Z,57.69
2019-04-25T12:19:54.986Z,58.09
2019-04-25T12:22:24.985Z,57.84
2019-04-25T12:24:55.606Z,57.75
2019-04-25T12:27:25.521Z,57.98
2019-04-25T12:29:54.718Z,57.16
2019-04-25T12:32:23.928Z,57.09
2019-04-25T12:34:53.688Z,57.24
2019-04-25T12:37:25.056Z,58.08
2019-04-25T12:39:55.958Z,57.33
2019-04-25T12:42:25.224Z,58.07
2019-04-25T12:44:59.110Z,60.51
2019-04-25T12:47:38.752Z,62.25
2019-04-25T12:50:08.726Z,63.88
2019-04-25T12:52:37.986Z,65.13
2019-04-25T12:55:07.704Z,66.49
2019-04-25T12:57:36.941Z,67.51
2019-04-25T13:00:07.333Z,69.04
2019-04-25T13:02:36.712Z,70.67
2019-04-25T13:05:07.126Z,72.60
2019-04-25T13:07:36.497Z,75.22
2019-04-25T13:10:07.427Z,76.72
2019-04-25T13:12:36.695Z,77.94
2019-04-25T13:15:06.832Z,80.20
2019-04-25T13:17:36.119Z,81.58
2019-04-25T13:20:07.797Z,83.77
2019-04-25T13:22:37.184Z,85.50
2019-04-25T13:25:08.426Z,83.59
2019-04-25T13:27:58.530Z,83.62
2019-04-25T13:30:35.515Z,82.93
2019-04-25T13:33:23.595Z,83.37
2019-04-25T13:35:59.956Z,83.55
2019-04-25T13:38:29.209Z,83.45
2019-04-25T13:40:59.247Z,84.33
2019-04-25T13:43:28.630Z,85.72
2019-04-25T13:45:58.033Z,87.50
2019-04-25T13:48:28.011Z,87.59
2019-04-25T13:50:57.439Z,87.79
2019-04-25T13:53:27.385Z,88.78
2019-04-25T13:55:57.883Z,90.26
2019-04-25T13:58:30.512Z,90.32
2019-04-25T14:00:58.894Z,90.72
2019-04-25T14:03:28.164Z,90.74
2019-04-25T14:05:57.341Z,90.90
2019-04-25T14:08:26.997Z,91.38
2019-04-25T14:10:56.322Z,92.24
2019-04-25T14:13:26.519Z,91.86
2019-04-25T14:15:59.976Z,91.80
2019-04-25T14:18:45.915Z,89.43
2019-04-25T14:21:16.876Z,87.21
2019-04-25T14:23:46.105Z,84.71
2019-04-25T14:26:15.467Z,82.26
2019-04-25T14:28:44.704Z,80.93
2019-04-25T14:31:30.568Z,81.51
2019-04-25T14:33:47.689Z,80.82
2019-04-25T14:36:17.015Z,80.31
2019-04-25T14:38:46.260Z,81.17
2019-04-25T14:41:15.600Z,81.53
2019-04-25T14:43:46.427Z,82.47
2019-04-25T14:46:15.795Z,83.25
2019-04-25T14:48:45.063Z,83.07
2019-04-25T14:51:14.394Z,83.69
2019-04-25T14:53:43.624Z,82.75
2019-04-25T14:56:30.300Z,82.87
2019-04-25T14:59:00.490Z,84.33
2019-04-25T15:01:30.162Z,83.77
2019-04-25T15:03:59.640Z,83.51
2019-04-25T15:06:29.747Z,82.96
2019-04-25T15:08:58.909Z,82.53
2019-04-25T15:11:29.066Z,82.29
2019-04-25T15:13:58.309Z,80.96
2019-04-25T15:16:27.590Z,78.96
2019-04-25T15:18:56.869Z,78.91
2019-04-25T15:21:26.266Z,77.99
2019-04-25T15:24:00.348Z,76.63
2019-04-25T15:26:26.864Z,76.84
2019-04-25T15:28:56.087Z,76.71
2019-04-25T15:31:25.687Z,76.68
2019-04-25T15:33:54.878Z,75.62
2019-04-25T15:36:35.617Z,75.51
2019-04-25T15:39:20.978Z,75.25
2019-04-25T15:42:06.329Z,74.46
2019-04-25T15:44:36.439Z,74.56
2019-04-25T15:47:07.318Z,75.05
2019-04-25T15:49:37.001Z,75.37
2019-04-25T15:52:06.925Z,76.16
2019-04-25T15:54:36.149Z,76.71
2019-04-25T15:57:06.219Z,75.30
2019-04-25T15:59:35.515Z,74.92
2019-04-25T16:02:08.302Z,73.81
2019-04-25T16:04:37.462Z,73.83
2019-04-25T16:07:07.241Z,73.83
2019-04-25T16:09:36.733Z,73.30
2019-04-25T16:12:06.020Z,71.66
2019-04-25T16:14:35.605Z,71.75
2019-04-25T16:17:04.835Z,72.02
2019-04-25T16:19:34.755Z,71.98
2019-04-25T16:22:04.811Z,71.94
2019-04-25T16:24:34.407Z,72.05
2019-04-25T16:27:04.697Z,72.52
2019-04-25T16:29:33.892Z,70.81
2019-04-25T16:32:04.843Z,70.64
2019-04-25T16:34:34.243Z,71.04
2019-04-25T16:37:03.563Z,71.32
2019-04-25T16:39:35.148Z,71.38
2019-04-25T16:42:04.484Z,71.68
2019-04-25T16:44:34.003Z,72.02
2019-04-25T16:47:03.530Z,72.17
2019-04-25T16:49:32.777Z,72.10
2019-04-25T16:52:02.203Z,71.86
2019-04-25T16:54:31.615Z,71.14
2019-04-25T16:57:00.910Z,71.11
2019-04-25T16:59:30.144Z,72.24
2019-04-25T17:01:59.477Z,72.49
2019-04-25T17:04:29.785Z,73.32
2019-04-25T17:06:59.347Z,73.44
2019-04-25T17:09:30.348Z,73.30
2019-04-25T17:11:59.762Z,74.70
2019-04-25T17:14:48.719Z,74.97
2019-04-25T17:17:19.746Z,74.77
2019-04-25T17:19:53.174Z,74.65
2019-04-25T17:22:23.198Z,75.10
2019-04-25T17:24:52.406Z,75.60
2019-04-25T17:27:22.384Z,75.32
2019-04-25T17:29:51.715Z,76.21
2019-04-25T17:32:48.444Z,76.58
2019-04-25T17:35:10.490Z,76.54
2019-04-25T17:37:47.376Z,76.34
2019-04-25T17:40:21.169Z,76.14
2019-04-25T17:42:50.487Z,73.35
2019-04-25T17:45:23.971Z,73.56
2019-04-25T17:47:54.987Z,72.66
2019-04-25T17:50:24.189Z,71.80
2019-04-25T17:52:53.413Z,70.97
2019-04-25T17:55:22.768Z,69.69
2019-04-25T17:57:51.925Z,69.80
2019-04-25T18:00:26.073Z,69.50
2019-04-25T18:02:58.865Z,68.96
2019-04-25T18:05:26.259Z,69.13
2019-04-25T18:07:55.468Z,68.74
2019-04-25T18:10:24.815Z,69.22
2019-04-25T18:12:54.229Z,69.83
2019-04-25T18:15:31.360Z,69.62
2019-04-25T18:18:02.195Z,69.33
2019-04-25T18:20:36.737Z,69.34
2019-04-25T18:23:10.513Z,68.98
2019-04-25T18:25:57.905Z,68.33
2019-04-25T18:28:37.798Z,67.54
2019-04-25T18:31:07.969Z,67.83
2019-04-25T18:33:37.324Z,68.38
2019-04-25T18:36:24.708Z,67.92
2019-04-25T18:39:05.008Z,67.04
2019-04-25T18:41:36.399Z,66.60
2019-04-25T18:44:10.467Z,66.38
2019-04-25T18:46:41.321Z,65.84
2019-04-25T18:49:10.500Z,65.73
2019-04-25T18:51:40.624Z,67.31
2019-04-25T18:54:17.291Z,67.70
2019-04-25T18:56:50.826Z,68.19
2019-04-25T18:59:24.756Z,68.27
2019-04-25T19:02:01.406Z,68.98
2019-04-25T19:04:41.809Z,68.59
2019-04-25T19:07:22.040Z,68.33
2019-04-25T19:09:42.882Z,68.81
2019-04-25T19:12:12.317Z,69.31
2019-04-25T19:14:43.104Z,69.31
2019-04-25T19:17:12.378Z,69.20
2019-04-25T19:19:41.649Z,69.22
2019-04-25T19:22:10.909Z,69.98
2019-04-25T19:24:43.581Z,69.98
2019-04-25T19:27:23.009Z,70.92
2019-04-25T19:29:41.956Z,70.92
2019-04-25T19:32:11.173Z,70.92
2019-04-25T19:34:41.242Z,70.95
2019-04-25T19:37:10.845Z,71.06
2019-04-25T19:39:42.784Z,71.28
2019-04-25T19:42:19.518Z,72.01
2019-04-25T19:44:49.220Z,72.01
2019-04-25T19:47:20.766Z,72.79
2019-04-25T19:49:50.030Z,73.03
2019-04-25T19:52:19.277Z,73.06
2019-04-25T19:54:49.437Z,73.16
2019-04-25T19:57:18.658Z,72.82
2019-04-25T19:59:48.467Z,72.82
2019-04-25T20:02:22.114Z,72.46
2019-04-25T20:04:56.091Z,72.11
2019-04-25T20:07:33.160Z,72.84
2019-04-25T20:10:07.068Z,73.40
2019-04-25T20:12:38.010Z,73.40
2019-04-25T20:15:08.664Z,73.56
2019-04-25T20:17:37.876Z,73.35
2019-04-25T20:20:07.561Z,73.64
2019-04-25T20:22:36.840Z,73.64
2019-04-25T20:25:07.142Z,73.54
2019-04-25T20:27:36.374Z,73.54
2019-04-25T20:30:07.135Z,73.23
2019-04-25T20:32:36.426Z,73.23
2019-04-25T20:35:05.884Z,73.62
2019-04-25T20:37:35.130Z,73.62
2019-04-25T20:40:05.887Z,74.22
2019-04-25T20:42:35.240Z,74.42
2019-04-25T20:45:07.014Z,74.42
2019-04-25T20:47:36.373Z,75.22
2019-04-25T20:50:06.641Z,75.22
2019-04-25T20:52:38.044Z,74.75
2019-04-25T20:55:08.112Z,74.73
2019-04-25T20:57:37.387Z,74.81
2019-04-25T21:00:08.530Z,74.49
2019-04-25T21:02:37.757Z,74.12
2019-04-25T21:05:07.508Z,74.36
2019-04-25T21:07:36.769Z,74.40
2019-04-25T21:10:07.398Z,73.96
2019-04-25T21:12:36.742Z,74.25
2019-04-25T21:15:15.386Z,75.56
2019-04-25T21:17:56.303Z,75.52
2019-04-25T21:20:25.605Z,75.52
2019-04-25T21:22:55.821Z,75.03
2019-04-25T21:25:25.145Z,75.01
2019-04-25T21:27:54.517Z,74.79
2019-04-25T21:30:23.833Z,74.79
2019-04-25T21:32:55.851Z,75.23
2019-04-25T21:35:25.789Z,74.76
2019-04-25T21:37:55.427Z,74.66
2019-04-25T21:40:32.392Z,74.99
2019-04-25T21:43:10.524Z,75.20
2019-04-25T21:45:40.122Z,74.84
2019-04-25T21:48:09.569Z,74.38
2019-04-25T21:50:39.224Z,75.08
2019-04-25T21:53:08.906Z,75.22
2019-04-25T21:55:38.436Z,75.06
2019-04-25T21:58:08.040Z,75.06
2019-04-25T22:00:44.663Z,75.83
2019-04-25T22:03:15.937Z,75.95
2019-04-25T22:05:45.211Z,76.55
2019-04-25T22:08:14.365Z,76.55
2019-04-25T22:10:43.767Z,76.99
2019-04-25T22:13:17.079Z,77.10
2019-04-25T22:16:02.169Z,77.40
2019-04-25T22:18:33.262Z,76.46
2019-04-25T22:21:02.639Z,76.46
2019-04-25T22:23:31.895Z,76.87
2019-04-25T22:26:01.417Z,76.78
2019-04-25T22:28:31.241Z,76.25
2019-04-25T22:31:08.144Z,76.24
2019-04-25T22:33:42.836Z,76.61
2019-04-25T22:36:13.812Z,76.54
2019-04-25T22:38:43.045Z,76.44
2019-04-25T22:41:12.333Z,76.81
2019-04-25T22:43:43.451Z,76.88
2019-04-25T22:46:25.276Z,76.79
2019-04-25T22:48:48.650Z,76.45
2019-04-25T22:51:18.049Z,76.64
2019-04-25T22:53:47.996Z,76.82
2019-04-25T22:56:17.252Z,77.36
2019-04-25T22:58:46.715Z,77.16
2019-04-25T23:01:34.030Z,77.55
2019-04-25T23:04:10.622Z,77.55
2019-04-25T23:06:40.790Z,77.15
2019-04-25T23:09:10.232Z,77.41
2019-04-25T23:11:39.474Z,77.06
2019-04-25T23:14:08.924Z,77.08
2019-04-25T23:16:38.922Z,77.08
2019-04-25T23:19:08.252Z,77.36
2019-04-25T23:21:38.428Z,77.70
2019-04-25T23:24:08.044Z,77.70
2019-04-25T23:26:39.322Z,77.80
2019-04-25T23:29:10.231Z,77.81
2019-04-25T23:31:41.078Z,78.51
2019-04-25T23:34:10.872Z,78.67
2019-04-25T23:36:40.253Z,78.60
2019-04-25T23:39:11.241Z,79.19
2019-04-25T23:41:40.678Z,79.56
2019-04-25T23:44:10.108Z,79.43
2019-04-25T23:46:39.831Z,78.90
2019-04-25T23:49:09.059Z,78.58
2019-04-25T23:51:38.314Z,78.60
2019-04-25T23:54:07.646Z,78.77
2019-04-25T23:56:38.014Z,78.65
2019-04-25T23:59:08.854Z,79.48
